Latest Weather Observations for Charles Point

IDD60801

Issued at 11:31 pm CST Sunday 17 February 2019 (issued every 10 minutes, with the page automatically refreshed every 10 minutes)

About weather observations | Map of weather stations | Latest weather observations for NT | Other Formats
Station Details ID: 014031 Name: CHARLES POINT Lat: -12.39 Lon: 130.63 Height: 14.0 m
Data from the previous 72 hours. | See also: Recent months for locations in Northern Territory
Date/Time
CST
Temp
°C
App
Temp
°C
Dew
Point
°C
Rel
Hum
%
Delta-T
°C
Wind Press
QNH
hPa
Press
MSL
hPa
Rain since
9am
mm
Dir  Spd
km/h
Gust
km/h
Spd
kts
Gust
kts
17/11:30pm 27.1 31.7 23.8 82 2.3 SSW 6 9 3 5 1011.3 1011.2 0.0
17/11:00pm 27.0 31.5 23.7 82 2.3 S 6 7 3 4 1011.3 1011.2 0.0
17/10:30pm 27.2 31.9 23.9 82 2.3 S 6 7 3 4 1011.2 1011.1 0.0
17/10:00pm 27.1 31.6 23.6 81 2.4 S 6 9 3 5 1011.0 1010.9 0.0
17/09:30pm 27.1 31.7 23.1 79 2.7 SSW 4 7 2 4 1010.7 1010.6 0.0
17/09:00pm 27.3 32.2 23.7 81 2.5 S 4 6 2 3 1010.2 1010.1 0.0
17/08:30pm 27.2 31.9 23.4 80 2.6 SSW 4 6 2 3 1009.9 1009.8 0.0
17/08:00pm 27.4 31.9 23.0 77 3.0 SW 4 6 2 3 1009.6 1009.5 0.0
17/07:30pm 27.7 31.5 22.4 73 3.6 SSW 6 9 3 5 1009.5 1009.4 0.0
17/07:00pm 28.7 31.4 22.2 68 4.4 S 11 20 6 11 1009.7 1009.6 0.0
17/06:30pm 30.9 35.5 24.8 70 4.3 WSW 9 17 5 9 1009.1 1009.0 0.0
17/06:00pm 31.3 36.2 24.7 68 4.6 SW 7 15 4 8 1009.0 1008.9 0.0
17/05:30pm 31.5 35.9 24.4 66 5.0 W 9 17 5 9 1008.5 1008.4 0.0
17/05:00pm 31.8 36.3 25.2 68 4.7 W 11 20 6 11 1008.0 1007.8 0.0
17/04:30pm 31.6 35.1 24.2 65 5.2 W 13 24 7 13 1008.3 1008.1 0.0
17/04:00pm 32.0 35.5 24.8 65 5.1 W 15 24 8 13 1008.2 1008.0 0.0
17/03:30pm 31.9 34.9 25.2 67 4.7 WNW 19 26 10 14 1008.3 1008.1 0.0
17/03:00pm 32.5 35.7 25.6 67 4.9 WNW 19 24 10 13 1008.7 1008.6 0.0
17/02:30pm 32.1 35.1 25.2 67 4.9 WNW 19 24 10 13 1009.4 1009.3 0.0
17/02:00pm 32.5 35.9 25.3 66 5.1 WNW 17 22 9 12 1009.8 1009.7 0.0
17/01:30pm 31.9 35.5 25.0 67 4.9 WNW 15 20 8 11 1010.5 1010.4 0.0
17/01:00pm 32.1 36.3 25.4 67 4.8 WNW 13 19 7 10 1010.8 1010.7 0.0
17/12:30pm 32.1 36.7 25.9 70 4.4 WNW 13 20 7 11 1011.2 1011.1 0.0
17/12:00pm 31.8 35.8 25.6 69 4.4 WNW 15 22 8 12 1011.5 1011.4 0.0
17/11:30am 31.6 35.7 25.7 71 4.2 WNW 15 20 8 11 1011.7 1011.6 0.0
17/11:00am 31.4 35.6 25.3 70 4.3 WNW 13 20 7 11 1012.0 1011.9 0.0
17/10:30am 31.2 35.8 25.3 71 4.2 WNW 11 17 6 9 1012.0 1011.9 0.0
17/10:00am 30.9 35.5 25.3 72 4.0 WNW 11 17 6 9 1011.8 1011.7 0.0
17/09:30am 30.5 35.3 25.1 73 3.8 WNW 9 13 5 7 1012.0 1011.9 0.0
17/09:00am 30.1 34.7 24.7 73 3.8 W 9 15 5 8 1012.2 1012.1 0.0
17/08:30am 29.7 35.3 25.4 78 3.0 W 6 15 3 8 1011.8 1011.7 0.0
17/08:00am 27.9 34.2 25.3 86 1.8 SW 2 6 1 3 1011.6 1011.5 0.0
17/07:30am 26.8 32.5 25.0 90 1.3 SSW 4 6 2 3 1011.3 1011.2 0.0
17/07:00am 26.3 32.2 24.7 91 1.1 WSW 2 4 1 2 1010.8 1010.7 0.0
17/06:30am 25.9 31.7 24.5 92 1.0 W 2 4 1 2 1010.5 1010.4 0.0
17/06:00am 25.4 30.9 24.0 92 1.0 SW 2 4 1 2 1010.2 1010.1 0.0
17/05:30am 25.4 30.4 23.8 91 1.1 WSW 4 6 2 3 1009.8 1009.7 0.0
17/05:00am 24.7 29.3 23.1 91 1.1 W 4 6 2 3 1009.6 1009.5 0.0
17/04:30am 24.7 29.9 22.9 90 1.2 CALM 0 0 0 0 1009.5 1009.4 0.0
17/04:00am 24.7 29.8 22.6 88 1.4 CALM 0 0 0 0 1009.1 1009.0 0.0
17/03:30am 24.7 29.8 22.6 88 1.4 CALM 0 0 0 0 1009.1 1009.0 0.0
17/03:00am 24.7 29.8 22.6 88 1.4 CALM 0 0 0 0 1009.3 1009.2 0.0
17/02:30am 24.9 30.0 22.6 87 1.5 CALM 0 0 0 0 1009.7 1009.6 0.0
17/02:00am 25.5 30.7 22.8 85 1.8 CALM 0 0 0 0 1010.2 1010.1 0.0
17/01:30am 25.4 29.4 22.7 85 1.8 SSW 6 7 3 4 1010.8 1010.7 0.0
17/01:00am 25.5 29.3 22.8 85 1.8 SSW 7 9 4 5 1011.1 1011.0 0.0
17/12:30am 25.9 30.4 23.0 84 2.0 SSE 4 6 2 3 1011.5 1011.4 0.0
17/12:00am 26.0 30.0 22.7 82 2.2 SSE 6 9 3 5 1012.0 1011.9 0.0
 
Date/Time
CST
Temp
°C
App
Temp
°C
Dew
Point
°C
Rel
Hum
%
Delta-T
°C
Wind Press
QNH
hPa
Press
MSL
hPa
Rain since
9am
mm
Dir  Spd
km/h
Gust
km/h
Spd
kts
Gust
kts
16/11:30pm 26.2 30.0 22.7 81 2.4 SSE 7 9 4 5 1012.3 1012.2 0.0
16/11:00pm 26.1 29.8 22.6 81 2.4 SE 7 11 4 6 1012.1 1012.0 0.0
16/10:30pm 26.4 31.1 22.7 80 2.5 S 2 6 1 3 1012.0 1011.9 0.0
16/10:00pm 26.7 31.3 22.5 78 2.8 ESE 2 4 1 2 1011.6 1011.5 0.0
16/09:30pm 27.0 31.1 22.2 75 3.2 E 4 6 2 3 1011.5 1011.4 0.0
16/09:00pm 27.0 30.3 21.5 72 3.7 SE 6 11 3 6 1011.6 1011.5 0.0
16/08:30pm 27.3 31.2 21.8 72 3.7 SSE 4 7 2 4 1011.3 1011.2 0.0
16/08:00pm 27.4 30.6 21.7 71 3.8 S 7 9 4 5 1011.0 1010.9 0.0
16/07:30pm 27.4 30.3 21.0 68 4.2 SSW 7 13 4 7 1010.7 1010.6 0.0
16/07:00pm 27.8 30.2 20.9 66 4.6 S 9 15 5 8 1010.1 1010.0 0.0
16/06:30pm 30.5 35.2 24.9 72 3.9 SW 9 17 5 9 1010.0 1009.9 0.0
16/06:00pm 31.1 35.8 25.0 70 4.3 W 9 24 5 13 1009.2 1009.1 0.0
16/05:30pm 31.8 35.3 24.9 67 4.9 W 15 24 8 13 1008.3 1008.1 0.0
16/05:00pm 31.8 34.6 24.9 67 4.9 WNW 19 26 10 14 1008.3 1008.1 0.0
16/04:30pm 32.2 35.6 25.8 69 4.6 WNW 19 26 10 14 1008.3 1008.1 0.0
16/04:00pm 32.4 35.8 25.2 66 5.1 WNW 17 20 9 11 1008.3 1008.1 0.0
16/03:30pm 32.2 35.7 24.8 65 5.2 WNW 15 19 8 10 1008.4 1008.2 0.0
16/03:00pm 32.5 36.2 25.8 68 4.8 WNW 17 20 9 11 1009.0 1008.9 0.0
16/02:30pm 32.3 35.9 25.6 67 4.8 WNW 17 22 9 12 1009.7 1009.6 0.0
16/02:00pm 32.6 37.0 25.7 67 4.9 NW 13 19 7 10 1010.6 1010.5 0.0
16/01:30pm 32.5 36.9 25.6 67 4.9 WNW 13 20 7 11 1011.0 1010.9 0.0
16/01:00pm 32.1 36.5 25.7 69 4.6 WNW 13 17 7 9 1011.4 1011.3 0.0
16/12:30pm 32.1 37.2 26.2 71 4.2 NW 11 17 6 9 1011.7 1011.6 0.0
16/12:00pm 32.1 37.4 25.9 70 4.4 NNW 9 13 5 7 1012.1 1012.0 0.0
16/11:30am 31.1 36.5 25.2 71 4.2 NNW 6 9 3 5 1012.4 1012.3 0.0
16/11:00am 31.2 36.7 25.3 71 4.2 NNW 6 7 3 4 1012.7 1012.6 0.0
16/10:30am 30.6 35.9 25.2 73 3.8 N 7 9 4 5 1012.6 1012.5 0.0
16/10:00am 30.6 36.4 25.7 75 3.5 N 6 7 3 4 1012.7 1012.6 0.0
16/09:30am 30.7 36.9 25.8 75 3.5 NW 4 6 2 3 1012.5 1012.4 0.0
16/09:00am 30.5 36.7 25.8 76 3.3 NW 4 6 2 3 1012.2 1012.1 0.0
16/08:30am 30.0 36.1 25.7 78 3.0 WNW 4 6 2 3 1012.1 1012.0 0.0
16/08:00am 28.4 35.4 25.8 86 1.8 CALM 0 0 0 0 1011.8 1011.7 0.0
16/07:30am 27.4 34.1 26.0 92 1.0 SW 2 4 1 2 1011.7 1011.6 0.0
16/07:00am 27.0 33.1 25.6 92 1.0 SW 4 4 2 2 1011.6 1011.5 0.0
16/06:30am 27.0 32.9 25.4 91 1.1 SW 4 7 2 4 1011.2 1011.1 0.0
16/06:00am 26.9 32.8 25.3 91 1.1 WSW 4 6 2 3 1010.9 1010.8 0.0
16/05:30am 27.1 33.4 25.3 90 1.3 WSW 2 4 1 2 1010.9 1010.8 0.0
16/05:00am 27.1 33.0 25.3 90 1.3 WSW 4 6 2 3 1010.8 1010.7 0.0
16/04:30am 27.6 34.6 25.8 90 1.3 CALM 0 4 0 2 1011.0 1010.9 0.0
16/04:00am 27.3 33.7 25.5 90 1.3 WSW 2 6 1 3 1010.9 1010.8 0.0
16/03:30am 27.4 33.5 25.6 90 1.3 SW 4 4 2 2 1011.0 1010.9 0.0
16/03:00am 28.0 34.2 25.8 88 1.6 WSW 4 7 2 4 1010.8 1010.7 0.0
16/02:30am 28.1 33.9 26.1 89 1.4 W 7 13 4 7 1010.9 1010.8 0.0
16/02:00am 27.8 33.7 25.4 87 1.7 W 4 6 2 3 1011.7 1011.6 0.0
16/01:30am 28.1 33.9 25.1 84 2.1 W 4 7 2 4 1012.1 1012.0 0.0
16/01:00am 28.3 33.8 24.7 81 2.5 W 4 9 2 5 1012.2 1012.1 0.0
16/12:30am 29.0 33.4 25.0 79 2.8 WNW 11 15 6 8 1012.3 1012.2 0.0
16/12:00am 28.9 33.6 24.9 79 2.8 WNW 9 13 5 7 1012.7 1012.6 0.0
 
Date/Time
CST
Temp
°C
App
Temp
°C
Dew
Point
°C
Rel
Hum
%
Delta-T
°C
Wind Press
QNH
hPa
Press
MSL
hPa
Rain since
9am
mm
Dir  Spd
km/h
Gust
km/h
Spd
kts
Gust
kts
15/11:30pm 29.1 33.3 25.3 80 2.7 NW 13 17 7 9 1012.6 1012.5 0.0
15/11:00pm 29.1 33.4 24.9 78 2.9 NW 11 15 6 8 1012.6 1012.5 0.0
15/10:30pm 29.0 32.9 25.4 81 2.5 NW 15 17 8 9 1012.4 1012.3 0.0
15/10:00pm 29.0 33.2 25.4 81 2.5 WNW 13 17 7 9 1012.4 1012.3 0.0
15/09:30pm 29.0 32.7 25.2 80 2.7 WNW 15 20 8 11 1011.7 1011.6 0.0
15/09:00pm 28.7 32.5 25.3 82 2.4 WNW 15 20 8 11 1011.7 1011.6 0.0
15/08:30pm 28.9 33.6 25.5 82 2.4 WNW 11 22 6 12 1011.7 1011.6 0.0
15/08:00pm 29.6 35.1 25.6 79 2.8 W 7 15 4 8 1011.4 1011.3 0.0
15/07:30pm 29.9 35.2 25.9 79 2.8 W 9 17 5 9 1011.1 1011.0 0.0
15/07:00pm 30.2 34.0 25.9 78 3.1 WNW 17 22 9 12 1010.6 1010.5 0.0
15/06:30pm 30.9 34.7 25.9 74 3.6 WNW 17 20 9 11 1010.2 1010.1 0.0
15/06:00pm 31.4 35.8 25.7 71 4.1 WNW 13 19 7 10 1009.9 1009.8 0.0
15/05:30pm 31.7 36.9 26.3 73 3.9 W 11 17 6 9 1009.3 1009.2 0.0
15/05:00pm 32.0 37.3 25.8 69 4.4 W 9 19 5 10 1009.0 1008.9 0.0
15/04:30pm 32.2 37.9 26.5 72 4.1 W 9 20 5 11 1009.0 1008.9 0.0
15/04:00pm 31.6 36.9 25.9 72 4.1 W 9 13 5 7 1009.6 1009.5 0.0
15/03:30pm 31.8 36.0 25.9 71 4.2 WNW 15 22 8 12 1010.2 1010.1 0.0
15/03:00pm 32.1 36.3 25.9 70 4.4 WNW 15 22 8 12 1010.4 1010.3 0.0
15/02:30pm 32.2 36.6 26.3 71 4.2 WNW 15 22 8 12 1010.5 1010.4 0.0
15/02:00pm 32.0 36.1 26.3 72 4.1 WNW 17 22 9 12 1010.8 1010.7 0.0
15/01:30pm 32.2 36.3 26.3 71 4.2 WNW 17 22 9 12 1011.2 1011.1 0.0
15/01:00pm 32.1 36.6 26.4 72 4.1 WNW 15 20 8 11 1011.6 1011.5 0.0
15/12:30pm 32.3 36.9 26.6 72 4.1 WNW 15 22 8 12 1012.0 1011.9 0.0
15/12:00pm 31.9 36.0 26.4 72 3.9 WNW 17 20 9 11 1012.4 1012.3 0.0
15/11:30am 31.9 36.6 26.7 74 3.7 WNW 15 20 8 11 1012.6 1012.5 0.0
15/11:00am 31.0 36.3 26.5 77 3.2 W 11 20 6 11 1012.7 1012.6 0.0
15/10:30am 30.6 35.7 26.1 77 3.2 W 11 19 6 10 1012.7 1012.6 0.0
15/10:00am 30.3 35.7 26.0 78 3.1 W 9 15 5 8 1012.7 1012.6 0.0
15/09:30am 29.9 34.8 25.9 79 2.8 W 11 17 6 9 1012.5 1012.4 0.0
15/09:00am 29.5 34.8 25.9 81 2.6 W 9 19 5 10 1012.3 1012.2 0.0
15/08:30am 29.2 34.8 25.8 82 2.4 W 7 15 4 8 1012.1 1012.0 0.0
15/08:00am 29.2 34.2 26.0 83 2.3 WNW 11 19 6 10 1011.8 1011.7 0.0
15/07:30am 28.9 34.6 25.9 84 2.1 W 7 13 4 7 1011.5 1011.4 0.0
15/07:00am 28.9 33.2 26.1 85 2.0 W 15 24 8 13 1010.6 1010.5 0.0
15/06:30am 28.7 32.0 25.7 84 2.1 WNW 19 24 10 13 1009.9 1009.8 0.0
15/06:00am 27.1 32.3 24.2 84 2.0 WNW 4 9 2 5 1010.1 1010.0 0.0
15/05:30am 26.4 31.3 23.7 85 1.9 WNW 4 9 2 5 1009.9 1009.8 0.0
15/05:00am 25.9 31.3 23.2 85 1.8 CALM 0 0 0 0 1009.5 1009.4 0.0
15/04:30am 25.9 30.5 23.2 85 1.8 SW 4 6 2 3 1009.7 1009.6 0.0
15/04:00am 26.2 31.4 22.9 82 2.2 CALM 0 0 0 0 1009.6 1009.5 0.0
15/03:30am 26.6 30.3 22.2 77 3.0 ESE 6 7 3 4 1009.8 1009.7 0.0
15/03:00am 27.5 31.6 22.9 76 3.1 ENE 6 9 3 5 1010.0 1009.9 0.0
15/02:30am 26.8 31.1 22.0 75 3.2 WSW 2 6 1 3 1010.4 1010.3 0.0
15/02:00am 27.3 30.3 21.3 69 4.0 SE 7 11 4 6 1011.4 1011.3 0.0
15/01:30am 28.3 32.0 24.5 80 2.6 SE 13 26 7 14 1012.3 1012.2 0.0
15/01:00am 28.9 35.0 25.1 80 2.7 WSW 2 6 1 3 1011.5 1011.4 0.0
15/12:30am 29.2 34.2 25.4 80 2.7 WNW 9 15 5 8 1011.4 1011.3 0.0
15/12:00am 29.1 34.3 25.1 79 2.8 W 7 13 4 7 1011.4 1011.3 0.0

Other Formats:

Comma delimited format used in spreadsheet applications
http://www.bom.gov.au/fwo/IDD60801/IDD60801.99510.axf

JavaScript Object Notation format (JSON) in row-major order
http://www.bom.gov.au/fwo/IDD60801/IDD60801.99510.json